• Join FlightAware (Why Join?)
  • Login
  • US Flag 
01:48AM EDT


 

Airport Tracker/Info


-or-


 

Live Flight TrackerFlight Track Log ✈ CSN3889 ✈ 04-May-2013 ✈ ZHHH / WUH - ZLXY / XIY

Flight Track Log - Related Links

Times and Time Zones

All times are in EDT time to prevent confusion due to time zone crossing. See the CSN3889 flight status page for this flight to view local times or setup timezone preferences in your user account.

Time Position Orientation Groundspeed Altitude Reporting Facility
EDT Latitude Longitude Course Direction KTS MPH feet Rate Location/Type
07:18AM 30.8623 114.0990 310° West  Level Estimated
07:19AM 30.9408 113.9897 310° West  Level Estimated
07:20AM 31.0192 113.8802 310° West  Level Estimated
07:21AM 31.0975 113.7705 310° West  Level Estimated
07:22AM 31.1757 113.6607 310° West  Level Estimated
07:23AM 31.2538 113.5507 310° West  Level Estimated
07:24AM 31.3318 113.4405 310° West  Level Estimated
07:25AM 31.4097 113.3301 310° West  Level Estimated
07:26AM 31.4875 113.2195 310° West  Level Estimated
07:27AM 31.5652 113.1087 309° West  Level Estimated
07:28AM 31.6429 112.9978 309° West  Level Estimated
07:29AM 31.7204 112.8867 309° West  Level Estimated
07:30AM 31.7978 112.7754 309° West  Level Estimated
07:31AM 31.8752 112.6638 309° West  Level Estimated
07:32AM 31.9524 112.5522 309° West  Level Estimated
07:33AM 32.0295 112.4403 309° West  Level Estimated
07:34AM 32.1066 112.3282 309° West  Level Estimated
07:35AM 32.1835 112.2160 309° West  Level Estimated
07:36AM 32.2604 112.1035 309° West  Level Estimated
07:37AM 32.3371 111.9909 309° West  Level Estimated
07:38AM 32.4138 111.8781 309° West  Level Estimated
07:39AM 32.4903 111.7651 309° West  Level Estimated
07:40AM 32.5668 111.6518 309° West  Level Estimated
07:41AM 32.6431 111.5384 309° West  Level Estimated
07:42AM 32.7194 111.4248 309° West  Level Estimated
07:43AM 32.7955 111.3111 309° West  Level Estimated
07:44AM 32.8715 111.1971 308° West  Level Estimated
07:45AM 32.9475 111.0829 308° West  Level Estimated
07:46AM 33.0233 110.9685 308° West  Level Estimated
07:47AM 33.0990 110.8539 308° West  Level Estimated
07:48AM 33.1746 110.7392 308° West  Level Estimated
07:49AM 33.2501 110.6242 308° West  Level Estimated
07:50AM 33.3256 110.5090 308° West  Level Estimated
07:51AM 33.4009 110.3937 308° West  Level Estimated
07:52AM 33.4761 110.2781 308° West  Level Estimated
07:53AM 33.5511 110.1623 308° West  Level Estimated
07:54AM 33.6261 110.0463 308° West  Level Estimated
07:55AM 33.7010 109.9302 308° West  Level Estimated
07:56AM 33.7757 109.8138 308° West  Level Estimated
07:57AM 33.8504 109.6972 308° West  Level Estimated
07:58AM 33.9249 109.5805 308° West  Level Estimated
07:59AM 33.9994 109.4635 308° West  Level Estimated
08:00AM 34.0737 109.3463 307° West  Level Estimated
08:01AM 34.1479 109.2289 307° West  Level Estimated
08:02AM 34.2220 109.1113 307° West  Level Estimated
08:03AM 34.2960 108.9935 307° West  Level Estimated
08:04AM 34.3699 108.8755 307° West  Level Estimated
08:05AM 34.4436 108.7572 307° West  Level Estimated
08:06AM 34.4471 108.7516 307° West  Level Estimated
08:07AM 34.4471 108.7516 121° Southeast  Level Estimated
08:08AM 34.4471 108.7516 121° Southeast  Level Estimated
08:09AM 34.4471 108.7516 121° Southeast  Level Estimated
08:10AM 34.4471 108.7516 121° Southeast  Level Estimated
08:11AM 34.4471 108.7516 121° Southeast  Level Estimated
08:12AM 34.4471 108.7516 121° Southeast  Level Estimated
08:13AM 34.4471 108.7516 121° Southeast  Level Estimated
08:14AM 34.4471 108.7516 121° Southeast  Level Estimated
08:15AM 34.4471 108.7516 121° Southeast  Level Estimated
08:16AM 34.4471 108.7516 121° Southeast  Level Estimated
08:17AM 34.4471 108.7516 121° Southeast  Level Estimated
08:18AM 34.4471 108.7516 121° Southeast  Level Estimated
08:19AM 34.4471 108.7516 121° Southeast  Level Estimated
08:20AM 34.4471 108.7516 121° Southeast  Level Estimated
08:21AM 34.4471 108.7516 121° Southeast  Level Estimated
08:22AM 34.4471 108.7516 121° Southeast  Level Estimated
08:23AM 34.4471 108.7516 121° Southeast  Level Estimated